Soaring Guidance
Issued by NWS Reno, NV

Home | Current Version | Previous Version | Text Only | Print | Product List | Glossary On
Versions: 1 2 3 4 5 6 7 8 9 10 11 12 13 14
000
UXUS97 KREV 021735
SRGREV

SOARING FORECAST
NATIONAL WEATHER SERVICE - RENO NV
700 AM PDT MON MAY 2 2016

THIS SOARING FORECAST IS FOR THE EASTERN SIERRA AND WESTERN NEVADA
WITH SPECIFIC INDICES FOR THE GREATER RENO AREA.

THIS FORECAST IS PREPARED DAILY BY 700 AM AND IS NOT UPDATED.

FOR CURRENT FLIGHT CONDITIONS...FORECASTS...AND ADVISORIES...ACCESS
YOUR LOCAL BRIEFING OUTLET OR FLIGHT SERVICE STATION.

*******************************************************************
FORECASTED LOCAL INDICES FOR RENO:        TODAY     YESTERDAY
FORECASTED MAX TEMP AT RENO (DEG F).....     73          68
FORECASTED TRIGGER TEMPERATURE (DEG F)..     57          52
   EXCEEDED YESTERDAY BY 955 AM PDT
FORECASTED MAXIMUM ALTITUDE (FT MSL)....  16900       16400
FORECASTED SOARING INDEX (FPM)..........   1047         942
FORECASTED K-INDEX.........VALID 18Z....     24          23
FORECASTED K-INDEX.........VALID 00Z....     26          26
FORECASTED LIFTED INDEX....VALID 18Z....      3           5
FORECASTED LIFTED INDEX....VALID 00Z....      2           2

AFTERNOON WINDS ALOFT FORECAST
MSL (FT) WIND/TEMP
9000  1305/+06
10000 9903/+03
12000 9900/-02
14000 9901/-07
16000 9903/-12
18000 16 8/-17
24000 9900/-27
30000 3018/-44
34000 3028/-53
39000 2924/-61

SLIDE MOUNTAIN DATA:
     DATE       TIME     TEMP  DEWPT   RH         WIND (MPH)
                        (F)   (F)           | DIR  SPEED GUST
2016-05-02    05:50      31    23     78    | 145    5    7
2016-05-02    05:30      31    23     78    | 142    5    7
2016-05-02    05:20      31    23     79    | 146    5    6
2016-05-02    05:00      31    23     79    | 139    6    8

RENO TAF FORECAST:
KRNO 021120Z 0212/0312 VRB03KT P6SM FEW090
     FM021900 12007KT P6SM SCT090
     FM030100 30008KT P6SM SCT060 BKN090
     FM030500 VRB03KT P6SM SCT070

CARSON CITY TAF FORECAST:
KCXP 021120Z 0212/0312 VRB03KT P6SM FEW080
     FM021800 07007KT P6SM SCT080
     FM030200 VRB03KT P6SM SCT050 BKN090
     FM030500 00000KT P6SM FEW060

OUTLOOK FOR THE RENO-CARSON CITY-MINDEN AREA:
.TUESDAY...PARTLY CLOUDY. SLIGHT CHANCE OF SHOWERS AND
THUNDERSTORMS IN THE AFTERNOON. HIGHS 74 TO 79. LIGHT WINDS
BECOMING SOUTH AROUND 10 MPH IN THE AFTERNOON.

SUNRISE AND SUNSET
MAY  2 2016...........SUNRISE   558 AM PDT   SUNSET   754 PM PDT
MAY  3 2016...........SUNRISE   557 AM PDT   SUNSET   755 PM PDT


USA.gov is the U.S. government's official web portal to all federal, state and local government web resources and services.